sensor_id;sensor_type;location;lat;lon;timestamp;temperature;humidity
65470;DHT22;52067;50.710;14.492;2022-10-31T00:01:18;7.66;90.93
65470;DHT22;52067;50.710;14.492;2022-10-31T00:03:43;7.64;90.66
65470;DHT22;52067;50.710;14.492;2022-10-31T00:06:08;7.67;90.60
65470;DHT22;52067;50.710;14.492;2022-10-31T00:08:34;7.67;90.25
65470;DHT22;52067;50.710;14.492;2022-10-31T00:10:59;7.70;90.09
65470;DHT22;52067;50.710;14.492;2022-10-31T00:13:24;7.73;89.86
65470;DHT22;52067;50.710;14.492;2022-10-31T00:15:49;7.82;89.61
65470;DHT22;52067;50.710;14.492;2022-10-31T00:18:15;7.68;90.23
65470;DHT22;52067;50.710;14.492;2022-10-31T00:20:40;7.77;89.91
65470;DHT22;52067;50.710;14.492;2022-10-31T00:23:05;7.87;89.55
65470;DHT22;52067;50.710;14.492;2022-10-31T00:25:35;7.95;89.09
65470;DHT22;52067;50.710;14.492;2022-10-31T00:28:01;7.89;89.10
65470;DHT22;52067;50.710;14.492;2022-10-31T00:30:26;7.87;89.03
65470;DHT22;52067;50.710;14.492;2022-10-31T00:32:52;7.87;89.04
65470;DHT22;52067;50.710;14.492;2022-10-31T00:35:17;7.88;88.98
65470;DHT22;52067;50.710;14.492;2022-10-31T00:37:42;7.70;89.42
65470;DHT22;52067;50.710;14.492;2022-10-31T00:40:07;7.34;90.75
65470;DHT22;52067;50.710;14.492;2022-10-31T00:42:33;7.40;90.91
65470;DHT22;52067;50.710;14.492;2022-10-31T00:44:58;7.47;91.19
65470;DHT22;52067;50.710;14.492;2022-10-31T00:47:23;7.66;90.32
65470;DHT22;52067;50.710;14.492;2022-10-31T00:49:49;7.78;90.11
65470;DHT22;52067;50.710;14.492;2022-10-31T00:52:14;7.37;90.72
65470;DHT22;52067;50.710;14.492;2022-10-31T00:54:39;7.19;91.64
65470;DHT22;52067;50.710;14.492;2022-10-31T00:57:04;7.46;91.78
65470;DHT22;52067;50.710;14.492;2022-10-31T00:59:30;7.50;91.26
65470;DHT22;52067;50.710;14.492;2022-10-31T01:01:55;7.39;90.78
65470;DHT22;52067;50.710;14.492;2022-10-31T01:04:20;7.12;91.58
65470;DHT22;52067;50.710;14.492;2022-10-31T01:06:45;7.08;91.85
65470;DHT22;52067;50.710;14.492;2022-10-31T01:09:11;6.95;92.58
65470;DHT22;52067;50.710;14.492;2022-10-31T01:11:36;6.74;93.77
65470;DHT22;52067;50.710;14.492;2022-10-31T01:14:01;6.93;93.59
65470;DHT22;52067;50.710;14.492;2022-10-31T01:16:27;7.00;93.25
65470;DHT22;52067;50.710;14.492;2022-10-31T01:18:54;7.18;92.67
65470;DHT22;52067;50.710;14.492;2022-10-31T01:21:21;7.20;92.16
65470;DHT22;52067;50.710;14.492;2022-10-31T01:23:47;7.33;91.67
65470;DHT22;52067;50.710;14.492;2022-10-31T01:26:16;7.39;91.10
65470;DHT22;52067;50.710;14.492;2022-10-31T01:28:46;7.10;90.91
65470;DHT22;52067;50.710;14.492;2022-10-31T01:31:12;7.20;91.02
65470;DHT22;52067;50.710;14.492;2022-10-31T01:33:38;7.16;91.22
65470;DHT22;52067;50.710;14.492;2022-10-31T01:36:23;7.12;90.96
65470;DHT22;52067;50.710;14.492;2022-10-31T01:38:49;7.22;90.37
65470;DHT22;52067;50.710;14.492;2022-10-31T01:41:16;7.13;90.40
65470;DHT22;52067;50.710;14.492;2022-10-31T01:43:46;7.08;91.21
65470;DHT22;52067;50.710;14.492;2022-10-31T01:46:11;7.15;90.79
65470;DHT22;52067;50.710;14.492;2022-10-31T01:48:37;7.23;90.46
65470;DHT22;52067;50.710;14.492;2022-10-31T01:51:03;7.29;90.10
65470;DHT22;52067;50.710;14.492;2022-10-31T01:53:31;7.27;89.82
65470;DHT22;52067;50.710;14.492;2022-10-31T01:55:56;6.96;90.46
65470;DHT22;52067;50.710;14.492;2022-10-31T01:58:25;7.12;90.61
65470;DHT22;52067;50.710;14.492;2022-10-31T02:00:53;7.15;90.14
65470;DHT22;52067;50.710;14.492;2022-10-31T02:03:19;6.88;90.33
65470;DHT22;52067;50.710;14.492;2022-10-31T02:05:45;6.74;91.23
65470;DHT22;52067;50.710;14.492;2022-10-31T02:08:26;6.85;91.48
65470;DHT22;52067;50.710;14.492;2022-10-31T02:10:52;7.10;91.16
65470;DHT22;52067;50.710;14.492;2022-10-31T02:13:17;7.05;90.74
65470;DHT22;52067;50.710;14.492;2022-10-31T02:15:44;7.02;90.86
65470;DHT22;52067;50.710;14.492;2022-10-31T02:18:10;6.88;91.13
65470;DHT22;52067;50.710;14.492;2022-10-31T02:21:23;7.15;91.27
65470;DHT22;52067;50.710;14.492;2022-10-31T02:26:25;7.18;90.64
65470;DHT22;52067;50.710;14.492;2022-10-31T02:34:48;7.09;90.73
65470;DHT22;52067;50.710;14.492;2022-10-31T02:36:57;7.09;90.96
65470;DHT22;52067;50.710;14.492;2022-10-31T02:39:25;7.15;91.01
65470;DHT22;52067;50.710;14.492;2022-10-31T02:42:13;7.13;90.72
65470;DHT22;52067;50.710;14.492;2022-10-31T02:47:44;6.85;91.62
65470;DHT22;52067;50.710;14.492;2022-10-31T02:52:20;6.88;92.11
65470;DHT22;52067;50.710;14.492;2022-10-31T02:54:46;6.99;91.77
65470;DHT22;52067;50.710;14.492;2022-10-31T02:57:11;7.00;91.65
65470;DHT22;52067;50.710;14.492;2022-10-31T02:59:38;7.10;91.45
65470;DHT22;52067;50.710;14.492;2022-10-31T03:07:21;6.93;91.39
65470;DHT22;52067;50.710;14.492;2022-10-31T03:12:40;7.19;90.77
65470;DHT22;52067;50.710;14.492;2022-10-31T03:15:21;7.19;90.59
65470;DHT22;52067;50.710;14.492;2022-10-31T03:20:13;6.91;91.26
65470;DHT22;52067;50.710;14.492;2022-10-31T03:22:39;6.95;91.02
65470;DHT22;52067;50.710;14.492;2022-10-31T03:25:05;6.92;90.81
65470;DHT22;52067;50.710;14.492;2022-10-31T03:27:33;6.89;91.25
65470;DHT22;52067;50.710;14.492;2022-10-31T03:30:00;6.98;91.41
65470;DHT22;52067;50.710;14.492;2022-10-31T03:32:28;6.98;91.39
65470;DHT22;52067;50.710;14.492;2022-10-31T03:34:55;7.08;90.91
65470;DHT22;52067;50.710;14.492;2022-10-31T03:37:21;7.12;90.86
65470;DHT22;52067;50.710;14.492;2022-10-31T03:39:48;6.87;91.40
65470;DHT22;52067;50.710;14.492;2022-10-31T03:42:18;6.91;91.36
65470;DHT22;52067;50.710;14.492;2022-10-31T03:44:51;6.98;91.36
65470;DHT22;52067;50.710;14.492;2022-10-31T03:47:18;6.91;91.22
65470;DHT22;52067;50.710;14.492;2022-10-31T03:49:44;6.69;91.56
65470;DHT22;52067;50.710;14.492;2022-10-31T03:55:05;7.00;91.26
65470;DHT22;52067;50.710;14.492;2022-10-31T04:00:05;7.09;91.18
65470;DHT22;52067;50.710;14.492;2022-10-31T04:02:32;7.03;91.02
65470;DHT22;52067;50.710;14.492;2022-10-31T04:04:59;7.08;90.91
65470;DHT22;52067;50.710;14.492;2022-10-31T04:07:25;7.00;91.05
65470;DHT22;52067;50.710;14.492;2022-10-31T04:09:51;6.91;91.76
65470;DHT22;52067;50.710;14.492;2022-10-31T04:12:18;6.77;91.96
65470;DHT22;52067;50.710;14.492;2022-10-31T04:14:45;6.61;93.68
65470;DHT22;52067;50.710;14.492;2022-10-31T04:17:12;6.36;93.94
65470;DHT22;52067;50.710;14.492;2022-10-31T04:19:38;6.23;94.11
65470;DHT22;52067;50.710;14.492;2022-10-31T04:22:06;6.29;93.87
65470;DHT22;52067;50.710;14.492;2022-10-31T04:24:31;6.31;93.82
65470;DHT22;52067;50.710;14.492;2022-10-31T04:26:56;6.47;93.35
65470;DHT22;52067;50.710;14.492;2022-10-31T04:29:21;6.60;93.04
65470;DHT22;52067;50.710;14.492;2022-10-31T04:31:47;6.75;92.62
65470;DHT22;52067;50.710;14.492;2022-10-31T04:34:12;6.77;92.25
65470;DHT22;52067;50.710;14.492;2022-10-31T04:36:37;6.89;92.22
65470;DHT22;52067;50.710;14.492;2022-10-31T04:39:02;7.02;92.13
65470;DHT22;52067;50.710;14.492;2022-10-31T04:41:28;6.99;92.02
65470;DHT22;52067;50.710;14.492;2022-10-31T04:43:53;6.93;92.10
65470;DHT22;52067;50.710;14.492;2022-10-31T04:46:18;6.87;91.88
65470;DHT22;52067;50.710;14.492;2022-10-31T04:48:44;6.98;91.85
65470;DHT22;52067;50.710;14.492;2022-10-31T04:51:09;7.08;91.77
65470;DHT22;52067;50.710;14.492;2022-10-31T04:53:34;7.06;91.54
65470;DHT22;52067;50.710;14.492;2022-10-31T04:55:59;7.16;91.45
65470;DHT22;52067;50.710;14.492;2022-10-31T04:58:26;7.00;91.67
65470;DHT22;52067;50.710;14.492;2022-10-31T05:00:52;6.96;91.45
65470;DHT22;52067;50.710;14.492;2022-10-31T05:03:18;6.96;91.87
65470;DHT22;52067;50.710;14.492;2022-10-31T05:05:43;7.06;91.72
65470;DHT22;52067;50.710;14.492;2022-10-31T05:08:08;7.18;91.20
65470;DHT22;52067;50.710;14.492;2022-10-31T05:10:34;7.20;90.85
65470;DHT22;52067;50.710;14.492;2022-10-31T05:13:00;7.26;90.80
65470;DHT22;52067;50.710;14.492;2022-10-31T05:15:26;7.05;91.26
65470;DHT22;52067;50.710;14.492;2022-10-31T05:17:51;7.09;91.42
65470;DHT22;52067;50.710;14.492;2022-10-31T05:20:18;7.15;91.28
65470;DHT22;52067;50.710;14.492;2022-10-31T05:22:44;6.79;91.60
65470;DHT22;52067;50.710;14.492;2022-10-31T05:25:09;6.96;91.76
65470;DHT22;52067;50.710;14.492;2022-10-31T05:27:34;7.08;91.26
65470;DHT22;52067;50.710;14.492;2022-10-31T05:30:03;6.98;91.84
65470;DHT22;52067;50.710;14.492;2022-10-31T05:32:28;7.06;91.64
65470;DHT22;52067;50.710;14.492;2022-10-31T05:34:54;7.08;91.48
65470;DHT22;52067;50.710;14.492;2022-10-31T05:37:20;7.26;91.38
65470;DHT22;52067;50.710;14.492;2022-10-31T05:39:45;6.98;92.35
65470;DHT22;52067;50.710;14.492;2022-10-31T05:42:10;6.85;92.04
65470;DHT22;52067;50.710;14.492;2022-10-31T05:44:35;6.77;92.72
65470;DHT22;52067;50.710;14.492;2022-10-31T05:47:01;6.69;92.81
65470;DHT22;52067;50.710;14.492;2022-10-31T05:49:26;6.79;92.67
65470;DHT22;52067;50.710;14.492;2022-10-31T05:51:51;6.92;92.73
65470;DHT22;52067;50.710;14.492;2022-10-31T05:54:16;7.09;92.39
65470;DHT22;52067;50.710;14.492;2022-10-31T05:56:42;6.82;93.21
65470;DHT22;52067;50.710;14.492;2022-10-31T05:59:07;6.68;93.26
65470;DHT22;52067;50.710;14.492;2022-10-31T06:01:32;6.87;93.18
65470;DHT22;52067;50.710;14.492;2022-10-31T06:03:57;6.69;93.11
65470;DHT22;52067;50.710;14.492;2022-10-31T06:06:23;6.61;93.59
65470;DHT22;52067;50.710;14.492;2022-10-31T06:08:48;6.79;93.57
65470;DHT22;52067;50.710;14.492;2022-10-31T06:11:13;6.68;93.61
65470;DHT22;52067;50.710;14.492;2022-10-31T06:13:38;6.85;93.41
65470;DHT22;52067;50.710;14.492;2022-10-31T06:16:04;7.00;92.98
65470;DHT22;52067;50.710;14.492;2022-10-31T06:18:29;7.08;92.71
65470;DHT22;52067;50.710;14.492;2022-10-31T06:20:54;7.20;92.44
65470;DHT22;52067;50.710;14.492;2022-10-31T06:23:19;7.10;91.96
65470;DHT22;52067;50.710;14.492;2022-10-31T06:25:48;7.10;91.97
65470;DHT22;52067;50.710;14.492;2022-10-31T06:28:14;7.18;92.04
65470;DHT22;52067;50.710;14.492;2022-10-31T06:30:39;6.75;92.44
65470;DHT22;52067;50.710;14.492;2022-10-31T06:33:04;6.68;92.90
65470;DHT22;52067;50.710;14.492;2022-10-31T06:35:29;6.67;93.30
65470;DHT22;52067;50.710;14.492;2022-10-31T06:37:55;6.82;93.19
65470;DHT22;52067;50.710;14.492;2022-10-31T06:40:20;6.88;92.59
65470;DHT22;52067;50.710;14.492;2022-10-31T06:42:46;6.87;92.09
65470;DHT22;52067;50.710;14.492;2022-10-31T06:45:11;6.93;92.13
65470;DHT22;52067;50.710;14.492;2022-10-31T06:47:36;6.71;92.40
65470;DHT22;52067;50.710;14.492;2022-10-31T06:50:01;6.65;92.50
65470;DHT22;52067;50.710;14.492;2022-10-31T06:52:27;6.74;92.48
65470;DHT22;52067;50.710;14.492;2022-10-31T06:54:52;6.78;92.62
65470;DHT22;52067;50.710;14.492;2022-10-31T06:57:17;6.84;92.61
65470;DHT22;52067;50.710;14.492;2022-10-31T06:59:42;6.96;92.37
65470;DHT22;52067;50.710;14.492;2022-10-31T07:02:11;6.98;92.02
65470;DHT22;52067;50.710;14.492;2022-10-31T07:04:36;7.24;91.98
65470;DHT22;52067;50.710;14.492;2022-10-31T07:07:01;7.40;91.20
65470;DHT22;52067;50.710;14.492;2022-10-31T07:09:27;7.24;90.44
65470;DHT22;52067;50.710;14.492;2022-10-31T07:11:52;7.33;91.06
65470;DHT22;52067;50.710;14.492;2022-10-31T07:14:18;7.30;91.85
65470;DHT22;52067;50.710;14.492;2022-10-31T07:16:43;7.19;92.31
65470;DHT22;52067;50.710;14.492;2022-10-31T07:19:08;7.30;91.52
65470;DHT22;52067;50.710;14.492;2022-10-31T07:21:33;7.44;91.37
65470;DHT22;52067;50.710;14.492;2022-10-31T07:23:59;7.61;91.02
65470;DHT22;52067;50.710;14.492;2022-10-31T07:26:24;7.74;89.71
65470;DHT22;52067;50.710;14.492;2022-10-31T07:28:49;7.77;89.31
65470;DHT22;52067;50.710;14.492;2022-10-31T07:31:14;7.85;89.07
65470;DHT22;52067;50.710;14.492;2022-10-31T07:33:40;7.61;90.65
65470;DHT22;52067;50.710;14.492;2022-10-31T07:36:05;7.81;89.78
65470;DHT22;52067;50.710;14.492;2022-10-31T07:38:30;7.70;90.60
65470;DHT22;52067;50.710;14.492;2022-10-31T07:40:56;7.99;90.08
65470;DHT22;52067;50.710;14.492;2022-10-31T07:43:21;8.22;89.53
65470;DHT22;52067;50.710;14.492;2022-10-31T07:45:51;8.39;88.82
65470;DHT22;52067;50.710;14.492;2022-10-31T07:48:17;8.52;88.41
65470;DHT22;52067;50.710;14.492;2022-10-31T07:50:42;8.63;88.45
65470;DHT22;52067;50.710;14.492;2022-10-31T07:53:08;8.53;88.46
65470;DHT22;52067;50.710;14.492;2022-10-31T07:55:34;8.56;88.18
65470;DHT22;52067;50.710;14.492;2022-10-31T07:58:06;8.29;88.07
65470;DHT22;52067;50.710;14.492;2022-10-31T08:00:32;8.32;89.33
65470;DHT22;52067;50.710;14.492;2022-10-31T08:03:01;8.37;88.88
65470;DHT22;52067;50.710;14.492;2022-10-31T08:05:28;8.53;89.04
65470;DHT22;52067;50.710;14.492;2022-10-31T08:07:54;7.94;92.54
65470;DHT22;52067;50.710;14.492;2022-10-31T08:10:19;8.24;90.78
65470;DHT22;52067;50.710;14.492;2022-10-31T08:12:45;8.60;89.46
65470;DHT22;52067;50.710;14.492;2022-10-31T08:15:10;8.64;88.45
65470;DHT22;52067;50.710;14.492;2022-10-31T08:17:35;8.39;91.04
65470;DHT22;52067;50.710;14.492;2022-10-31T08:20:01;8.73;90.13
65470;DHT22;52067;50.710;14.492;2022-10-31T08:22:26;8.80;89.11
65470;DHT22;52067;50.710;14.492;2022-10-31T08:24:51;8.78;89.16
65470;DHT22;52067;50.710;14.492;2022-10-31T08:27:16;8.85;89.49
65470;DHT22;52067;50.710;14.492;2022-10-31T08:29:42;8.76;89.83
65470;DHT22;52067;50.710;14.492;2022-10-31T08:32:07;8.32;89.81
65470;DHT22;52067;50.710;14.492;2022-10-31T08:34:32;8.61;89.86
65470;DHT22;52067;50.710;14.492;2022-10-31T08:36:57;8.68;91.04
65470;DHT22;52067;50.710;14.492;2022-10-31T08:39:23;8.54;89.97
65470;DHT22;52067;50.710;14.492;2022-10-31T08:41:48;9.19;89.31
65470;DHT22;52067;50.710;14.492;2022-10-31T08:44:13;9.59;88.62
65470;DHT22;52067;50.710;14.492;2022-10-31T08:46:40;9.89;87.58
65470;DHT22;52067;50.710;14.492;2022-10-31T08:49:05;9.45;88.52
65470;DHT22;52067;50.710;14.492;2022-10-31T08:51:31;8.73;90.61
65470;DHT22;52067;50.710;14.492;2022-10-31T08:53:56;9.26;89.14
65470;DHT22;52067;50.710;14.492;2022-10-31T08:56:21;9.42;88.26
65470;DHT22;52067;50.710;14.492;2022-10-31T08:58:47;9.73;87.63
65470;DHT22;52067;50.710;14.492;2022-10-31T09:01:12;9.50;88.92
65470;DHT22;52067;50.710;14.492;2022-10-31T09:03:37;9.64;88.65
65470;DHT22;52067;50.710;14.492;2022-10-31T09:06:03;9.94;87.67
65470;DHT22;52067;50.710;14.492;2022-10-31T09:08:30;10.04;87.01
65470;DHT22;52067;50.710;14.492;2022-10-31T09:10:57;9.93;87.44
65470;DHT22;52067;50.710;14.492;2022-10-31T09:13:22;9.90;88.34
65470;DHT22;52067;50.710;14.492;2022-10-31T09:15:48;10.35;87.27
65470;DHT22;52067;50.710;14.492;2022-10-31T09:18:14;10.71;85.96
65470;DHT22;52067;50.710;14.492;2022-10-31T09:20:41;9.73;88.23
65470;DHT22;52067;50.710;14.492;2022-10-31T09:23:10;10.40;86.30
65470;DHT22;52067;50.710;14.492;2022-10-31T09:25:36;9.98;87.86
65470;DHT22;52067;50.710;14.492;2022-10-31T09:28:01;10.65;86.27
65470;DHT22;52067;50.710;14.492;2022-10-31T09:30:28;10.95;85.95
65470;DHT22;52067;50.710;14.492;2022-10-31T09:32:58;11.42;84.06
65470;DHT22;52067;50.710;14.492;2022-10-31T09:35:23;11.47;84.95
65470;DHT22;52067;50.710;14.492;2022-10-31T09:40:21;11.27;85.56
65470;DHT22;52067;50.710;14.492;2022-10-31T09:42:52;11.62;83.69
65470;DHT22;52067;50.710;14.492;2022-10-31T09:45:28;11.28;86.19
65470;DHT22;52067;50.710;14.492;2022-10-31T09:47:59;11.55;84.27
65470;DHT22;52067;50.710;14.492;2022-10-31T09:50:29;11.89;83.09
65470;DHT22;52067;50.710;14.492;2022-10-31T09:53:03;10.68;88.40
65470;DHT22;52067;50.710;14.492;2022-10-31T09:55:42;11.48;86.36
65470;DHT22;52067;50.710;14.492;2022-10-31T09:58:13;11.59;84.90
65470;DHT22;52067;50.710;14.492;2022-10-31T10:00:39;12.05;83.39
65470;DHT22;52067;50.710;14.492;2022-10-31T10:03:09;12.13;83.46
65470;DHT22;52067;50.710;14.492;2022-10-31T10:05:41;12.02;83.92
65470;DHT22;52067;50.710;14.492;2022-10-31T10:08:21;11.24;86.86
65470;DHT22;52067;50.710;14.492;2022-10-31T10:10:56;11.58;85.80
65470;DHT22;52067;50.710;14.492;2022-10-31T10:13:34;12.09;84.17
65470;DHT22;52067;50.710;14.492;2022-10-31T10:16:21;12.37;83.50
65470;DHT22;52067;50.710;14.492;2022-10-31T10:18:58;11.98;83.64
65470;DHT22;52067;50.710;14.492;2022-10-31T10:21:30;12.58;82.76
65470;DHT22;52067;50.710;14.492;2022-10-31T10:26:43;11.90;85.93
65470;DHT22;52067;50.710;14.492;2022-10-31T10:31:54;12.46;83.26
65470;DHT22;52067;50.710;14.492;2022-10-31T10:34:23;12.54;83.33
65470;DHT22;52067;50.710;14.492;2022-10-31T10:36:56;13.15;82.73
65470;DHT22;52067;50.710;14.492;2022-10-31T10:41:48;13.01;81.56
65470;DHT22;52067;50.710;14.492;2022-10-31T10:44:32;13.06;82.26
65470;DHT22;52067;50.710;14.492;2022-10-31T10:47:16;12.17;85.95
65470;DHT22;52067;50.710;14.492;2022-10-31T10:50:01;12.85;83.12
65470;DHT22;52067;50.710;14.492;2022-10-31T10:55:03;14.14;79.85
65470;DHT22;52067;50.710;14.492;2022-10-31T11:00:21;14.01;80.45
65470;DHT22;52067;50.710;14.492;2022-10-31T11:02:47;14.05;79.42
65470;DHT22;52067;50.710;14.492;2022-10-31T11:07:56;15.41;74.80
65470;DHT22;52067;50.710;14.492;2022-10-31T11:10:22;16.63;71.57
65470;DHT22;52067;50.710;14.492;2022-10-31T11:12:58;17.47;70.56
65470;DHT22;52067;50.710;14.492;2022-10-31T11:15:25;18.42;65.27
65470;DHT22;52067;50.710;14.492;2022-10-31T11:17:51;17.16;68.71
65470;DHT22;52067;50.710;14.492;2022-10-31T11:22:43;19.97;60.96
65470;DHT22;52067;50.710;14.492;2022-10-31T11:27:46;19.72;62.36
65470;DHT22;52067;50.710;14.492;2022-10-31T11:30:12;20.55;59.32
65470;DHT22;52067;50.710;14.492;2022-10-31T11:32:40;20.74;58.17
65470;DHT22;52067;50.710;14.492;2022-10-31T11:35:09;21.37;57.21
65470;DHT22;52067;50.710;14.492;2022-10-31T11:37:35;20.67;58.79
65470;DHT22;52067;50.710;14.492;2022-10-31T11:40:05;22.04;55.14
65470;DHT22;52067;50.710;14.492;2022-10-31T11:42:35;21.78;55.74
65470;DHT22;52067;50.710;14.492;2022-10-31T11:45:02;20.86;58.09
65470;DHT22;52067;50.710;14.492;2022-10-31T11:47:30;19.25;61.73
65470;DHT22;52067;50.710;14.492;2022-10-31T11:49:57;20.54;61.49
65470;DHT22;52067;50.710;14.492;2022-10-31T11:52:26;20.54;59.57
65470;DHT22;52067;50.710;14.492;2022-10-31T11:54:57;20.75;59.32
65470;DHT22;52067;50.710;14.492;2022-10-31T11:57:29;20.37;59.92
65470;DHT22;52067;50.710;14.492;2022-10-31T11:59:57;21.36;57.83
65470;DHT22;52067;50.710;14.492;2022-10-31T12:02:23;21.36;57.97
65470;DHT22;52067;50.710;14.492;2022-10-31T12:04:51;20.54;61.23
65470;DHT22;52067;50.710;14.492;2022-10-31T12:07:19;21.75;58.69
65470;DHT22;52067;50.710;14.492;2022-10-31T12:09:44;21.68;57.76
65470;DHT22;52067;50.710;14.492;2022-10-31T12:20:23;20.85;60.44
65470;DHT22;52067;50.710;14.492;2022-10-31T12:23:06;21.16;59.43
65470;DHT22;52067;50.710;14.492;2022-10-31T12:25:43;21.91;56.71
65470;DHT22;52067;50.710;14.492;2022-10-31T12:33:45;23.04;53.68
65470;DHT22;52067;50.710;14.492;2022-10-31T12:43:48;25.29;47.88
65470;DHT22;52067;50.710;14.492;2022-10-31T12:46:22;25.08;48.13
65470;DHT22;52067;50.710;14.492;2022-10-31T12:51:48;25.73;47.10
65470;DHT22;52067;50.710;14.492;2022-10-31T12:59:29;25.01;48.59
65470;DHT22;52067;50.710;14.492;2022-10-31T13:01:59;23.25;52.48
65470;DHT22;52067;50.710;14.492;2022-10-31T13:07:11;23.32;52.97
65470;DHT22;52067;50.710;14.492;2022-10-31T13:09:38;22.46;55.49
65470;DHT22;52067;50.710;14.492;2022-10-31T13:12:12;22.77;55.39
65470;DHT22;52067;50.710;14.492;2022-10-31T13:14:41;23.46;53.58
65470;DHT22;52067;50.710;14.492;2022-10-31T13:17:21;24.16;52.27
65470;DHT22;52067;50.710;14.492;2022-10-31T13:19:47;25.10;48.61
65470;DHT22;52067;50.710;14.492;2022-10-31T13:22:21;25.50;48.07
65470;DHT22;52067;50.710;14.492;2022-10-31T13:30:16;26.40;45.72
65470;DHT22;52067;50.710;14.492;2022-10-31T13:32:50;26.93;45.00
65470;DHT22;52067;50.710;14.492;2022-10-31T13:35:40;26.67;45.27
65470;DHT22;52067;50.710;14.492;2022-10-31T13:40:55;24.88;49.81
65470;DHT22;52067;50.710;14.492;2022-10-31T13:46:20;25.44;47.58
65470;DHT22;52067;50.710;14.492;2022-10-31T13:48:46;24.96;48.28
65470;DHT22;52067;50.710;14.492;2022-10-31T13:51:11;24.44;50.88
65470;DHT22;52067;50.710;14.492;2022-10-31T13:56:18;22.53;54.92
65470;DHT22;52067;50.710;14.492;2022-10-31T13:58:56;21.29;58.29
65470;DHT22;52067;50.710;14.492;2022-10-31T14:01:22;21.33;58.00
65470;DHT22;52067;50.710;14.492;2022-10-31T14:04:36;22.13;56.07
65470;DHT22;52067;50.710;14.492;2022-10-31T14:09:05;23.75;52.62
65470;DHT22;52067;50.710;14.492;2022-10-31T14:11:31;24.18;52.72
65470;DHT22;52067;50.710;14.492;2022-10-31T14:13:56;24.37;52.18
65470;DHT22;52067;50.710;14.492;2022-10-31T14:18:50;25.19;48.85
65470;DHT22;52067;50.710;14.492;2022-10-31T14:23:47;23.75;50.95
65470;DHT22;52067;50.710;14.492;2022-10-31T14:28:51;22.32;54.84
65470;DHT22;52067;50.710;14.492;2022-10-31T14:34:04;21.67;56.93
65470;DHT22;52067;50.710;14.492;2022-10-31T14:49:36;22.05;56.74
65470;DHT22;52067;50.710;14.492;2022-10-31T14:52:05;21.87;57.47
65470;DHT22;52067;50.710;14.492;2022-10-31T14:54:32;21.22;59.75
65470;DHT22;52067;50.710;14.492;2022-10-31T14:57:02;20.96;59.88
65470;DHT22;52067;50.710;14.492;2022-10-31T14:59:30;20.03;63.15
65470;DHT22;52067;50.710;14.492;2022-10-31T15:02:00;19.87;63.25
65470;DHT22;52067;50.710;14.492;2022-10-31T15:04:27;19.52;64.08
65470;DHT22;52067;50.710;14.492;2022-10-31T15:09:28;17.95;73.12
65470;DHT22;52067;50.710;14.492;2022-10-31T15:11:55;17.67;72.36
65470;DHT22;52067;50.710;14.492;2022-10-31T15:14:24;17.32;71.52
65470;DHT22;52067;50.710;14.492;2022-10-31T15:16:50;16.55;74.15
65470;DHT22;52067;50.710;14.492;2022-10-31T15:19:19;16.23;75.24
65470;DHT22;52067;50.710;14.492;2022-10-31T15:21:45;16.13;74.78
65470;DHT22;52067;50.710;14.492;2022-10-31T15:24:12;15.72;76.40
65470;DHT22;52067;50.710;14.492;2022-10-31T15:26:43;15.70;76.65
65470;DHT22;52067;50.710;14.492;2022-10-31T15:29:13;15.61;76.61
65470;DHT22;52067;50.710;14.492;2022-10-31T15:31:38;15.27;78.07
65470;DHT22;52067;50.710;14.492;2022-10-31T15:34:15;15.16;77.27
65470;DHT22;52067;50.710;14.492;2022-10-31T15:36:41;15.07;76.72
65470;DHT22;52067;50.710;14.492;2022-10-31T15:39:09;14.93;77.32
65470;DHT22;52067;50.710;14.492;2022-10-31T15:44:18;14.52;78.08
65470;DHT22;52067;50.710;14.492;2022-10-31T15:46:51;14.35;78.69
65470;DHT22;52067;50.710;14.492;2022-10-31T15:49:59;14.11;79.70
65470;DHT22;52067;50.710;14.492;2022-10-31T15:52:20;14.07;79.64
65470;DHT22;52067;50.710;14.492;2022-10-31T15:54:50;13.98;79.21
65470;DHT22;52067;50.710;14.492;2022-10-31T15:57:16;13.73;80.02
65470;DHT22;52067;50.710;14.492;2022-10-31T15:59:45;13.44;81.01
65470;DHT22;52067;50.710;14.492;2022-10-31T16:02:11;13.25;81.87
65470;DHT22;52067;50.710;14.492;2022-10-31T16:04:36;12.94;82.94
65470;DHT22;52067;50.710;14.492;2022-10-31T16:07:12;12.43;84.65
65470;DHT22;52067;50.710;14.492;2022-10-31T16:09:48;12.23;85.13
65470;DHT22;52067;50.710;14.492;2022-10-31T16:12:14;12.03;85.85
65470;DHT22;52067;50.710;14.492;2022-10-31T16:14:39;11.93;85.86
65470;DHT22;52067;50.710;14.492;2022-10-31T16:17:06;11.92;85.66
65470;DHT22;52067;50.710;14.492;2022-10-31T16:19:36;11.99;84.43
65470;DHT22;52067;50.710;14.492;2022-10-31T16:22:09;11.79;84.73
65470;DHT22;52067;50.710;14.492;2022-10-31T16:24:39;11.65;85.85
65470;DHT22;52067;50.710;14.492;2022-10-31T16:27:15;11.28;87.01
65470;DHT22;52067;50.710;14.492;2022-10-31T16:29:42;11.47;86.39
65470;DHT22;52067;50.710;14.492;2022-10-31T16:32:24;11.44;86.12
65470;DHT22;52067;50.710;14.492;2022-10-31T16:35:16;11.62;85.27
65470;DHT22;52067;50.710;14.492;2022-10-31T16:37:42;11.55;84.66
65470;DHT22;52067;50.710;14.492;2022-10-31T16:40:09;11.50;83.56
65470;DHT22;52067;50.710;14.492;2022-10-31T16:42:35;11.48;83.65
65470;DHT22;52067;50.710;14.492;2022-10-31T16:45:00;11.45;83.61
65470;DHT22;52067;50.710;14.492;2022-10-31T16:47:25;11.52;83.92
65470;DHT22;52067;50.710;14.492;2022-10-31T16:49:51;11.35;84.35
65470;DHT22;52067;50.710;14.492;2022-10-31T16:52:16;11.32;85.04
65470;DHT22;52067;50.710;14.492;2022-10-31T16:54:42;11.24;85.87
65470;DHT22;52067;50.710;14.492;2022-10-31T16:57:09;10.61;86.79
65470;DHT22;52067;50.710;14.492;2022-10-31T16:59:36;10.11;88.50
65470;DHT22;52067;50.710;14.492;2022-10-31T17:02:01;9.93;89.07
65470;DHT22;52067;50.710;14.492;2022-10-31T17:04:28;10.15;88.69
65470;DHT22;52067;50.710;14.492;2022-10-31T17:06:53;10.07;88.26
65470;DHT22;52067;50.710;14.492;2022-10-31T17:09:18;9.90;89.23
65470;DHT22;52067;50.710;14.492;2022-10-31T17:11:45;9.82;89.87
65470;DHT22;52067;50.710;14.492;2022-10-31T17:14:11;9.63;89.68
65470;DHT22;52067;50.710;14.492;2022-10-31T17:16:37;9.84;89.47
65470;DHT22;52067;50.710;14.492;2022-10-31T17:19:02;9.86;89.00
65470;DHT22;52067;50.710;14.492;2022-10-31T17:21:27;10.08;88.31
65470;DHT22;52067;50.710;14.492;2022-10-31T17:23:53;10.01;87.49
65470;DHT22;52067;50.710;14.492;2022-10-31T17:26:19;10.24;87.46
65470;DHT22;52067;50.710;14.492;2022-10-31T17:28:44;10.27;87.04
65470;DHT22;52067;50.710;14.492;2022-10-31T17:31:17;10.38;86.41
65470;DHT22;52067;50.710;14.492;2022-10-31T17:33:44;10.49;85.88
65470;DHT22;52067;50.710;14.492;2022-10-31T17:36:09;10.56;85.65
65470;DHT22;52067;50.710;14.492;2022-10-31T17:38:36;10.66;85.64